Flight Track Log - Related Links

Times and Time Zones

All times are in EST time to prevent confusion due to time zone crossing. See the EJA922 flight status page for this flight to view local times or setup timezone preferences in your user account.

Time Position Orientation Groundspeed Altitude Reporting Facility
EST Latitude Longitude Course Direction KTS MPH feet Rate Location/Type
Fri 10:58:52 AM 43.6333 -79.6333 255° West 170 196 3,100  Level Toronto Center
Fri 10:59:52 AM 43.5833 -79.6833 216° Southwest 230 265 6,400 3,650 Climbing Toronto Center
Fri 11:00:52 AM 43.5667 -79.7667 255° West 230 265 10,400 3,800 Climbing Toronto Center
Fri 11:01:52 AM 43.5833 -79.8667 283° West 250 288 14,000 3,250 Climbing Toronto Center
Fri 11:02:52 AM 43.6000 -79.9500 285° West 290 334 16,900 2,400 Climbing Toronto Center
Fri 11:03:52 AM 43.6167 -80.1000 279° West 330 380 18,800 1,950 Climbing Toronto Center
Fri 11:04:00 AM 43.6793 -80.8534 255° West  Level FlightAware Approximate
Fri 11:04:52 AM 43.6167 -80.2333 270° West 360 414 20,800  Level Toronto Center
Fri 11:05:52 AM 43.6167 -80.4000 270° West 390 449 22,000 600 Climbing Toronto Center
Fri 11:06:52 AM 43.6000 -80.5333 260° West 420 483 22,000  Level Toronto Center
Fri 11:07:52 AM 43.6000 -80.7167 270° West 420 483 22,000  Level Toronto Center
Fri 11:08:52 AM 43.5667 -80.8500 251° West 420 483 22,000  Level Toronto Center
Fri 11:09:52 AM 43.5667 -81.0167 270° West 420 483 22,000  Level Toronto Center
Fri 11:10:52 AM 43.5500 -81.1667 261° West 430 495 22,000  Level Toronto Center
Fri 11:11:52 AM 43.5500 -81.3333 270° West 420 483 22,000  Level Toronto Center
Fri 11:12:52 AM 43.5333 -81.5000 262° West 400 460 22,000  Level Toronto Center
Fri 11:13:52 AM 43.5333 -81.6333 270° West 390 449 22,000  Level Toronto Center
Fri 11:14:52 AM 43.5167 -81.8000 262° West 400 460 22,000  Level Toronto Center
Fri 11:15:52 AM 43.5000 -81.9500 261° West 420 483 22,000  Level Toronto Center
Fri 11:16:52 AM 43.5000 -82.1167 270° West 420 483 22,000  Level Toronto Center
Fri 11:17:52 AM 43.4833 -82.2833 262° West 420 483 22,000  Level Toronto Center
Fri 11:18:52 AM 43.4833 -82.4333 270° West 420 483 22,000  Level Toronto Center
Fri 11:19:52 AM 43.4667 -82.6000 262° West 420 483 22,000  Level Toronto Center
Fri 11:20:52 AM 43.4500 -82.7500 261° West 410 472 22,000  Level Toronto Center
Fri 11:21:52 AM 43.4333 -82.9167 262° West 410 472 22,000  Level Toronto Center
Fri 11:22:52 AM 43.4333 -83.0500 270° West 410 472 22,000  Level Toronto Center
Fri 11:23:22 AM 43.4344 -83.1306 271° West 416 479 22,000  Level Cleveland Center
Fri 11:24:24 AM 43.4228 -83.2883 264° West 418 481 22,000  Level Cleveland Center
Fri 11:25:25 AM 43.4106 -83.4383 264° West 402 463 22,000  Level Cleveland Center
Fri 11:26:27 AM 43.3947 -83.6200 263° West 401 461 22,000  Level Cleveland Center
Fri 11:27:28 AM 43.3825 -83.7736 264° West 405 466 22,000  Level Cleveland Center
Fri 11:28:30 AM 43.3689 -83.9272 263° West 407 468 22,000  Level Cleveland Center
Fri 11:29:31 AM 43.3550 -84.0978 264° West 413 475 22,000  Level Cleveland Center
Fri 11:30:33 AM 43.3417 -84.2550 263° West 416 479 22,000  Level Cleveland Center
Fri 11:31:34 AM 43.3269 -84.4114 263° West 415 478 22,000  Level Cleveland Center
Fri 11:32:36 AM 43.3128 -84.5678 263° West 414 476 22,000  Level Cleveland Center
Fri 11:33:37 AM 43.2989 -84.7250 263° West 416 479 22,000  Level Cleveland Center
Fri 11:34:39 AM 43.2839 -84.8797 262° West 412 474 22,000  Level Cleveland Center
Fri 11:35:41 AM 43.2692 -85.0356 263° West 413 475 22,000  Level Cleveland Center
Fri 11:36:55 AM 43.2489 -85.2544 263° West 414 476 22,000  Level Chicago Center
Fri 11:37:56 AM 43.2333 -85.4094 262° West 413 475 22,000  Level Chicago Center
Fri 11:38:58 AM 43.2172 -85.5647 262° West 414 476 22,000  Level Chicago Center
Fri 11:39:59 AM 43.2025 -85.7208 263° West 415 478 22,000  Level Chicago Center
Fri 11:41:01 AM 43.1867 -85.8747 262° West 415 478 22,000  Level Chicago Center
Fri 11:42:02 AM 43.1714 -86.0289 262° West 418 481 22,000  Level Chicago Center
Fri 11:43:04 AM 43.1669 -86.2153 268° West 419 482 22,000 -390 Level Chicago Center
Fri 11:44:05 AM 43.1650 -86.3717 269° West 415 478 21,200 -1,268 Descending Chicago Center
Fri 11:45:07 AM 43.1617 -86.5281 268° West 414 476 19,400 -1,707 Descending Chicago Center
Fri 11:46:08 AM 43.1586 -86.6772 268° West 396 456 17,700 -1,707 Descending Chicago Center
Fri 11:47:10 AM 43.1561 -86.8247 269° West 390 449 15,900 -1,707 Descending Chicago Center
Fri 11:48:11 AM 43.1536 -86.9689 269° West 383 441 14,200 -1,659 Descending Chicago Center
Fri 11:49:13 AM 43.1494 -87.1228 268° West 341 392 12,500 -1,561 Descending Chicago Center
Fri 11:50:14 AM 43.1461 -87.2528 268° West 344 396 11,000 -1,220 Descending Chicago Center
Fri 11:51:16 AM 43.1431 -87.3814 268° West 340 391 10,000 -484 Descending Chicago Center
Fri 11:52:18 AM 43.1461 -87.4983 272° West 335 386 10,000 -488 Level Chicago Center
Fri 11:53:19 AM 43.1503 -87.6011 273° West 275 316 9,000 -1,561 Descending Chicago Center
Fri 11:54:21 AM 43.1547 -87.7158 273° West 253 291 6,800 -2,390 Descending Chicago Center
Fri 11:55:22 AM 43.1575 -87.8117 272° West 252 290 4,100 -1,902 Descending Chicago Center
Fri 11:56:24 AM 43.1231 -87.8619 227° Southwest 223 257 2,900 -634 Descending Chicago Center
Fri 11:57:25 AM 43.0744 -87.8731 189° South 196 226 2,800 -146 Descending Chicago Center
Fri 11:58:27 AM 43.0406 -87.8786 187° South 159 183 2,600 -439 Descending Chicago Center
Fri 11:59:28 AM 43.0097 -87.8836 187° South 130 150 1,900 -439 Descending Chicago Center
Fri 12:00:30 PM 42.9728 -87.8906 188° South 124 143 1,700 -194 Descending Chicago Center
Fri 12:02:00 PM 42.9469 -87.8971 195° South  Level Estimated
Fri 12:09:00 PM 42.9469 -87.8971 195° South  Level Estimated

Login

Don't have an account? Register now (free) for customized features, flight alerts, and more!